createdAt,value
2018-06-10T00:00:25.119Z,93.32
2018-06-10T00:02:54.204Z,93.61
2018-06-10T00:05:23.123Z,92.93
2018-06-10T00:07:52.761Z,93.57
2018-06-10T00:10:21.878Z,94.93
2018-06-10T00:12:51.559Z,95.55
2018-06-10T00:15:20.503Z,95.47
2018-06-10T00:17:49.599Z,95.41
2018-06-10T00:20:18.679Z,96.06
2018-06-10T00:22:47.611Z,94.93
2018-06-10T00:25:17.295Z,95.68
2018-06-10T00:27:46.495Z,95.47
2018-06-10T00:30:15.566Z,96.09
2018-06-10T00:32:44.867Z,97.34
2018-06-10T00:35:13.787Z,96.31
2018-06-10T00:37:42.958Z,97.24
2018-06-10T00:40:11.906Z,96.94
2018-06-10T00:42:41.590Z,96.87
2018-06-10T00:45:10.680Z,94.25
2018-06-10T00:47:39.973Z,94.43
2018-06-10T00:50:09.444Z,94.19
2018-06-10T00:52:38.384Z,93.16
2018-06-10T00:55:07.423Z,91.86
2018-06-10T00:57:36.650Z,94.77
2018-06-10T01:00:05.760Z,96.14
2018-06-10T01:02:35.041Z,94.78
2018-06-10T01:05:04.159Z,94.57
2018-06-10T01:07:33.284Z,94.62
2018-06-10T01:10:02.303Z,96.94
2018-06-10T01:12:31.438Z,96.78
2018-06-10T01:15:00.703Z,94.97
2018-06-10T01:17:30.123Z,94.92
2018-06-10T01:19:59.231Z,95.15
2018-06-10T01:22:28.684Z,94.44
2018-06-10T01:24:57.826Z,94.61
2018-06-10T01:27:27.215Z,95.16
2018-06-10T01:29:56.773Z,96.79
2018-06-10T01:32:25.840Z,96.97
2018-06-10T01:34:54.936Z,95.84
2018-06-10T01:37:25.326Z,96.87
2018-06-10T01:39:54.454Z,97.02
2018-06-10T01:42:23.377Z,97.42
2018-06-10T01:44:52.302Z,96.48
2018-06-10T01:47:22.754Z,97.28
2018-06-10T01:49:51.940Z,97.35
2018-06-10T01:52:21.133Z,97.88
2018-06-10T01:54:50.251Z,98.45
2018-06-10T01:57:19.450Z,97.67
2018-06-10T01:59:48.549Z,97.43
2018-06-10T02:02:18.256Z,97.30
2018-06-10T02:04:47.335Z,97.28
2018-06-10T02:07:16.535Z,98.22
2018-06-10T02:09:46.060Z,98.09
2018-06-10T02:12:15.147Z,97.80
2018-06-10T02:14:44.200Z,97.67
2018-06-10T02:17:13.237Z,97.79
2018-06-10T02:19:42.731Z,98.12
2018-06-10T02:22:11.814Z,98.19
2018-06-10T02:24:40.753Z,97.99
2018-06-10T02:27:10.063Z,99.00
2018-06-10T02:29:39.126Z,98.47
2018-06-10T02:32:08.048Z,97.15
2018-06-10T02:34:37.111Z,97.25
2018-06-10T02:37:06.391Z,98.33
2018-06-10T02:39:35.923Z,98.11
2018-06-10T02:42:05.808Z,98.40
2018-06-10T02:44:34.752Z,98.32
2018-06-10T02:47:03.664Z,98.36
2018-06-10T02:49:33.732Z,97.54
2018-06-10T02:52:02.801Z,98.12
2018-06-10T02:54:31.926Z,97.15
2018-06-10T02:57:01.121Z,96.99
2018-06-10T02:59:30.220Z,97.18
2018-06-10T03:02:00.102Z,97.24
2018-06-10T03:04:29.847Z,98.17
2018-06-10T03:06:59.331Z,96.96
2018-06-10T03:09:28.499Z,97.81
2018-06-10T03:11:57.724Z,100.00
2018-06-10T03:14:26.830Z,99.42
2018-06-10T03:16:55.799Z,99.84
2018-06-10T03:19:24.966Z,100.00
2018-06-10T03:21:54.211Z,100.00
2018-06-10T03:24:23.321Z,100.00
2018-06-10T03:26:52.395Z,100.00
2018-06-10T03:29:21.515Z,100.00
2018-06-10T03:31:50.579Z,100.00
2018-06-10T03:34:19.578Z,99.47
2018-06-10T03:36:48.679Z,100.00
2018-06-10T03:39:17.796Z,100.00
2018-06-10T03:41:46.727Z,99.37
2018-06-10T03:44:15.956Z,99.39
2018-06-10T03:46:45.083Z,99.79
2018-06-10T03:49:14.148Z,99.43
2018-06-10T03:51:43.184Z,98.82
2018-06-10T03:54:12.330Z,100.00
2018-06-10T03:56:41.551Z,100.00
2018-06-10T03:59:10.622Z,99.52
2018-06-10T04:01:40.380Z,99.59
2018-06-10T04:04:09.650Z,99.07
2018-06-10T04:06:38.606Z,98.42
2018-06-10T04:09:08.282Z,98.00
2018-06-10T04:11:37.479Z,98.29
2018-06-10T04:14:06.770Z,97.89
2018-06-10T04:16:35.737Z,97.99
2018-06-10T04:19:04.947Z,98.01
2018-06-10T04:21:34.268Z,97.68
2018-06-10T04:24:04.162Z,97.06
2018-06-10T04:26:33.363Z,97.14
2018-06-10T04:29:02.458Z,96.70
2018-06-10T04:31:31.580Z,96.78
2018-06-10T04:34:00.862Z,97.13
2018-06-10T04:36:30.167Z,96.35
2018-06-10T04:38:59.274Z,96.29
2018-06-10T04:41:28.760Z,96.59
2018-06-10T04:43:57.848Z,96.06
2018-06-10T04:46:26.986Z,96.89
2018-06-10T04:48:56.235Z,96.82
2018-06-10T04:51:25.343Z,97.51
2018-06-10T04:53:54.428Z,96.91
2018-06-10T04:56:23.380Z,97.34
2018-06-10T04:58:52.597Z,96.73
2018-06-10T05:01:21.731Z,95.78
2018-06-10T05:03:50.857Z,96.44
2018-06-10T05:06:19.939Z,96.71
2018-06-10T05:08:49.179Z,96.97
2018-06-10T05:11:18.529Z,96.44
2018-06-10T05:13:47.604Z,96.31
2018-06-10T05:16:16.826Z,96.09
2018-06-10T05:18:46.095Z,95.74
2018-06-10T05:21:15.230Z,95.58
2018-06-10T05:23:44.334Z,95.82
2018-06-10T05:26:13.706Z,96.08
2018-06-10T05:28:42.783Z,95.92
2018-06-10T05:31:12.298Z,95.74
2018-06-10T05:33:41.395Z,96.02
2018-06-10T05:36:10.534Z,96.71
2018-06-10T05:38:39.683Z,95.98
2018-06-10T05:41:08.778Z,95.83
2018-06-10T05:43:37.719Z,94.55
2018-06-10T05:46:10.243Z,94.38
2018-06-10T05:48:39.331Z,95.83
2018-06-10T05:51:08.455Z,96.13
2018-06-10T05:53:37.532Z,95.80
2018-06-10T05:56:10.302Z,96.45
2018-06-10T05:58:39.407Z,96.32
2018-06-10T06:01:08.496Z,95.11
2018-06-10T06:03:37.619Z,95.56
2018-06-10T06:06:10.074Z,95.05
2018-06-10T06:08:39.167Z,95.00
2018-06-10T06:11:08.262Z,95.75
2018-06-10T06:13:37.366Z,95.58
2018-06-10T06:16:09.607Z,94.51
2018-06-10T06:18:38.575Z,95.03
2018-06-10T06:21:07.865Z,94.54
2018-06-10T06:23:37.115Z,93.53
2018-06-10T06:26:11.738Z,93.89
2018-06-10T06:28:40.906Z,93.46
2018-06-10T06:31:10.141Z,92.91
2018-06-10T06:33:39.255Z,93.49
2018-06-10T06:36:09.775Z,92.79
2018-06-10T06:38:38.861Z,93.65
2018-06-10T06:41:07.822Z,93.80
2018-06-10T06:43:37.039Z,93.17
2018-06-10T06:46:12.125Z,92.81
2018-06-10T06:48:41.386Z,92.20
2018-06-10T06:51:10.523Z,91.89
2018-06-10T06:53:39.769Z,90.69
2018-06-10T06:56:10.086Z,91.23
2018-06-10T06:58:39.187Z,91.12
2018-06-10T07:01:08.271Z,90.80
2018-06-10T07:03:37.402Z,90.67
2018-06-10T07:06:09.747Z,89.95
2018-06-10T07:08:38.872Z,88.61
2018-06-10T07:11:08.358Z,86.98
2018-06-10T07:13:37.676Z,86.95
2018-06-10T07:16:10.597Z,84.78
2018-06-10T07:18:39.645Z,87.51
2018-06-10T07:21:08.729Z,87.90
2018-06-10T07:23:37.885Z,89.18
2018-06-10T07:26:16.026Z,89.09
2018-06-10T07:28:45.164Z,89.68
2018-06-10T07:31:14.439Z,89.46
2018-06-10T07:33:43.399Z,88.77
2018-06-10T07:36:12.546Z,89.71
2018-06-10T07:38:41.827Z,88.49
2018-06-10T07:41:10.899Z,87.14
2018-06-10T07:43:39.875Z,88.64
2018-06-10T07:46:10.235Z,88.76
2018-06-10T07:48:39.267Z,87.91
2018-06-10T07:51:08.414Z,87.85
2018-06-10T07:53:37.519Z,86.23
2018-06-10T07:56:12.371Z,84.91
2018-06-10T07:58:41.642Z,84.95
2018-06-10T08:01:10.748Z,81.67
2018-06-10T08:03:39.703Z,83.61
2018-06-10T08:06:10.156Z,86.50
2018-06-10T08:08:39.265Z,82.44
2018-06-10T08:11:08.210Z,83.15
2018-06-10T08:13:37.271Z,84.69
2018-06-10T08:16:09.555Z,84.05
2018-06-10T08:18:39.314Z,85.22
2018-06-10T08:21:08.183Z,82.19
2018-06-10T08:23:37.407Z,82.76
2018-06-10T08:26:09.919Z,82.36
2018-06-10T08:28:39.058Z,80.84
2018-06-10T08:31:08.320Z,80.25
2018-06-10T08:33:37.783Z,79.86
2018-06-10T08:36:10.068Z,79.23
2018-06-10T08:38:39.150Z,79.85
2018-06-10T08:41:08.503Z,78.33
2018-06-10T08:43:37.550Z,79.17
2018-06-10T08:46:09.930Z,80.13
2018-06-10T08:48:39.016Z,79.74
2018-06-10T08:51:08.546Z,79.39
2018-06-10T08:53:38.229Z,79.31
2018-06-10T08:56:10.941Z,80.28
2018-06-10T08:58:39.843Z,80.05
2018-06-10T09:01:09.143Z,81.10
2018-06-10T09:03:38.204Z,80.72
2018-06-10T09:06:09.387Z,81.14
2018-06-10T09:08:38.696Z,80.72
2018-06-10T09:11:07.934Z,80.75
2018-06-10T09:13:36.879Z,79.76
2018-06-10T09:16:10.792Z,80.08
2018-06-10T09:18:40.032Z,80.50
2018-06-10T09:21:09.357Z,80.70
2018-06-10T09:23:38.654Z,81.53
2018-06-10T09:26:10.900Z,81.22
2018-06-10T09:28:39.995Z,81.69
2018-06-10T09:31:09.522Z,82.16
2018-06-10T09:33:38.652Z,82.40
2018-06-10T09:36:09.895Z,81.75
2018-06-10T09:38:38.949Z,81.65
2018-06-10T09:41:08.219Z,81.50
2018-06-10T09:43:37.370Z,82.74
2018-06-10T09:46:10.360Z,82.27
2018-06-10T09:48:39.308Z,83.53
2018-06-10T09:51:08.594Z,83.37
2018-06-10T09:53:37.826Z,82.44
2018-06-10T09:56:11.112Z,82.82
2018-06-10T09:58:40.172Z,83.05
2018-06-10T10:01:09.337Z,82.28
2018-06-10T10:03:38.610Z,82.43
2018-06-10T10:06:09.344Z,83.02
2018-06-10T10:08:38.443Z,83.43
2018-06-10T10:11:07.576Z,82.17
2018-06-10T10:13:37.447Z,82.55
2018-06-10T10:16:09.739Z,80.11
2018-06-10T10:18:39.045Z,79.44
2018-06-10T10:21:08.991Z,79.96
2018-06-10T10:23:37.990Z,78.05
2018-06-10T10:26:10.803Z,75.23
2018-06-10T10:28:40.985Z,72.24
2018-06-10T10:31:10.025Z,68.68
2018-06-10T10:33:39.104Z,66.79
2018-06-10T10:36:09.401Z,63.86
2018-06-10T10:38:39.019Z,65.06
2018-06-10T10:41:07.947Z,61.67
2018-06-10T10:43:37.173Z,68.36
2018-06-10T10:46:09.256Z,71.43
2018-06-10T10:48:39.173Z,66.70
2018-06-10T10:51:08.422Z,63.39
2018-06-10T10:53:37.509Z,63.60
2018-06-10T10:56:10.289Z,67.81
2018-06-10T10:58:39.411Z,72.42
2018-06-10T11:01:08.484Z,74.00
2018-06-10T11:03:37.457Z,72.21
2018-06-10T11:06:10.139Z,73.30
2018-06-10T11:08:39.462Z,71.01
2018-06-10T11:11:08.435Z,67.00
2018-06-10T11:13:37.658Z,69.87
2018-06-10T11:16:10.536Z,71.28
2018-06-10T11:18:40.451Z,69.76
2018-06-10T11:21:09.542Z,69.05
2018-06-10T11:23:38.661Z,68.64
2018-06-10T11:26:11.085Z,67.81
2018-06-10T11:28:40.077Z,67.80
2018-06-10T11:31:09.510Z,66.55
2018-06-10T11:33:38.565Z,69.62
2018-06-10T11:36:11.498Z,69.05
2018-06-10T11:38:41.822Z,73.41
2018-06-10T11:41:10.927Z,73.60
2018-06-10T11:43:39.973Z,74.07
2018-06-10T11:46:09.827Z,73.83
2018-06-10T11:48:39.115Z,71.68
2018-06-10T11:51:08.614Z,72.60
2018-06-10T11:53:37.722Z,67.05
2018-06-10T11:56:10.602Z,64.95
2018-06-10T11:58:39.702Z,69.33
2018-06-10T12:01:08.987Z,67.97
2018-06-10T12:03:38.089Z,68.63
2018-06-10T12:06:10.859Z,68.38
2018-06-10T12:08:39.856Z,68.34
2018-06-10T12:11:09.060Z,70.09
2018-06-10T12:13:38.193Z,65.99
2018-06-10T12:16:10.726Z,67.30
2018-06-10T12:18:39.874Z,64.87
2018-06-10T12:21:09.163Z,65.85
2018-06-10T12:23:38.254Z,65.96
2018-06-10T12:26:11.200Z,66.75
2018-06-10T12:28:40.180Z,63.16
2018-06-10T12:31:09.611Z,62.59
2018-06-10T12:33:38.706Z,65.12
2018-06-10T12:36:10.967Z,64.85
2018-06-10T12:38:40.074Z,65.90
2018-06-10T12:41:09.156Z,65.77
2018-06-10T12:43:38.459Z,64.05
2018-06-10T12:46:09.416Z,67.01
2018-06-10T12:48:38.507Z,68.80
2018-06-10T12:51:07.602Z,68.95
2018-06-10T12:53:37.260Z,69.75
2018-06-10T12:56:13.687Z,67.71
2018-06-10T12:58:42.765Z,68.48
2018-06-10T13:01:11.702Z,68.17
2018-06-10T13:03:40.958Z,68.36
2018-06-10T13:06:10.051Z,67.15
2018-06-10T13:08:39.170Z,66.73
2018-06-10T13:11:08.237Z,66.39
2018-06-10T13:13:37.502Z,63.84
2018-06-10T13:16:10.018Z,63.85
2018-06-10T13:18:39.150Z,64.92
2018-06-10T13:21:08.678Z,65.10
2018-06-10T13:23:38.196Z,65.32
2018-06-10T13:26:10.422Z,65.08
2018-06-10T13:28:39.683Z,66.62
2018-06-10T13:31:08.791Z,67.86
2018-06-10T13:33:37.889Z,67.82
2018-06-10T13:36:10.858Z,67.54
2018-06-10T13:38:39.802Z,68.00
2018-06-10T13:41:09.106Z,67.74
2018-06-10T13:43:38.162Z,67.85
2018-06-10T13:46:10.629Z,66.06
2018-06-10T13:48:39.737Z,64.79
2018-06-10T13:51:09.888Z,63.88
2018-06-10T13:53:39.144Z,65.39
2018-06-10T13:56:11.007Z,63.42
2018-06-10T13:58:40.122Z,64.53
2018-06-10T14:01:09.429Z,64.18
2018-06-10T14:03:38.551Z,62.89
2018-06-10T14:06:11.684Z,61.61
2018-06-10T14:08:40.795Z,63.98
2018-06-10T14:11:10.275Z,63.89
2018-06-10T14:13:39.469Z,64.41
2018-06-10T14:16:09.708Z,63.47
2018-06-10T14:18:38.741Z,64.87
2018-06-10T14:21:08.128Z,64.33
2018-06-10T14:23:37.212Z,64.97
2018-06-10T14:26:09.867Z,63.89
2018-06-10T14:28:38.978Z,64.58
2018-06-10T14:31:08.079Z,63.76
2018-06-10T14:33:37.193Z,65.08
2018-06-10T14:36:09.625Z,64.68
2018-06-10T14:38:38.755Z,64.50
2018-06-10T14:41:08.023Z,65.30
2018-06-10T14:43:37.309Z,66.00
2018-06-10T14:46:09.715Z,65.43
2018-06-10T14:48:39.917Z,64.32
2018-06-10T14:51:09.144Z,65.24
2018-06-10T14:53:38.115Z,64.01
2018-06-10T14:56:11.440Z,64.39
2018-06-10T14:58:40.698Z,63.70
2018-06-10T15:01:10.262Z,65.46
2018-06-10T15:03:39.710Z,65.70
2018-06-10T15:06:09.530Z,66.62
2018-06-10T15:08:38.563Z,65.58
2018-06-10T15:11:07.759Z,66.44
2018-06-10T15:13:37.037Z,65.59
2018-06-10T15:16:09.969Z,65.01
2018-06-10T15:18:39.199Z,64.33
2018-06-10T15:21:08.712Z,63.73
2018-06-10T15:23:37.667Z,63.14
2018-06-10T15:26:09.779Z,63.82
2018-06-10T15:28:39.709Z,63.10
2018-06-10T15:31:09.790Z,65.30
2018-06-10T15:33:39.111Z,62.17
2018-06-10T15:36:09.373Z,62.54
2018-06-10T15:38:38.644Z,61.90
2018-06-10T15:41:07.754Z,61.99
2018-06-10T15:43:37.258Z,62.32
2018-06-10T15:46:10.038Z,61.96
2018-06-10T15:48:39.011Z,63.27
2018-06-10T15:51:09.634Z,62.85
2018-06-10T15:53:38.986Z,61.83
2018-06-10T15:56:10.600Z,63.02
2018-06-10T15:58:40.098Z,63.53
2018-06-10T16:01:09.245Z,63.24
2018-06-10T16:03:38.531Z,62.29
2018-06-10T16:06:09.734Z,59.96
2018-06-10T16:08:39.474Z,60.86
2018-06-10T16:11:08.575Z,60.86
2018-06-10T16:13:37.907Z,61.45
2018-06-10T16:16:09.465Z,60.42
2018-06-10T16:18:38.828Z,62.35
2018-06-10T16:21:08.048Z,61.16
2018-06-10T16:23:37.430Z,61.69
2018-06-10T16:26:09.235Z,60.22
2018-06-10T16:28:38.521Z,62.28
2018-06-10T16:31:07.771Z,63.51
2018-06-10T16:33:36.823Z,63.96
2018-06-10T16:36:09.539Z,62.86
2018-06-10T16:38:38.491Z,62.90
2018-06-10T16:41:07.736Z,63.67
2018-06-10T16:43:36.812Z,63.26
2018-06-10T16:46:09.911Z,63.11
2018-06-10T16:48:40.013Z,62.34
2018-06-10T16:51:09.715Z,62.93
2018-06-10T16:53:39.117Z,62.74
2018-06-10T16:56:09.567Z,63.12
2018-06-10T16:58:38.530Z,63.86
2018-06-10T17:01:08.364Z,64.79
2018-06-10T17:03:37.679Z,64.19
2018-06-10T17:06:10.815Z,63.17
2018-06-10T17:08:39.978Z,63.04
2018-06-10T17:11:09.170Z,63.16
2018-06-10T17:13:38.295Z,63.00
2018-06-10T17:16:10.666Z,60.83
2018-06-10T17:18:39.719Z,62.13
2018-06-10T17:21:09.519Z,62.37
2018-06-10T17:23:38.759Z,62.76
2018-06-10T17:26:09.655Z,63.49
2018-06-10T17:28:39.376Z,62.75
2018-06-10T17:31:08.396Z,63.46
2018-06-10T17:33:37.552Z,63.55
2018-06-10T17:36:10.174Z,63.58
2018-06-10T17:38:39.450Z,65.10
2018-06-10T17:41:08.707Z,64.63
2018-06-10T17:43:37.830Z,64.88
2018-06-10T17:46:11.022Z,65.46
2018-06-10T17:48:40.129Z,64.22
2018-06-10T17:51:09.087Z,64.08
2018-06-10T17:53:38.047Z,64.44
2018-06-10T17:56:09.560Z,63.84
2018-06-10T17:58:38.508Z,64.85
2018-06-10T18:01:07.455Z,64.23
2018-06-10T18:03:36.693Z,63.50
2018-06-10T18:06:09.037Z,65.00
2018-06-10T18:08:38.863Z,65.39
2018-06-10T18:11:08.251Z,65.26
2018-06-10T18:13:37.952Z,65.89
2018-06-10T18:16:08.771Z,65.09
2018-06-10T18:18:37.866Z,65.77
2018-06-10T18:21:06.824Z,66.72
2018-06-10T18:23:36.067Z,66.51
2018-06-10T18:26:08.215Z,66.64
2018-06-10T18:28:37.251Z,66.47
2018-06-10T18:31:06.406Z,67.96
2018-06-10T18:33:35.935Z,67.32
2018-06-10T18:36:08.234Z,67.43
2018-06-10T18:38:37.622Z,66.58
2018-06-10T18:41:06.586Z,67.12
2018-06-10T18:43:35.922Z,67.89
2018-06-10T18:46:09.874Z,67.91
2018-06-10T18:48:39.126Z,66.14
2018-06-10T18:51:08.395Z,66.23
2018-06-10T18:53:37.733Z,67.24
2018-06-10T18:56:10.288Z,68.49
2018-06-10T18:58:39.417Z,67.42
2018-06-10T19:01:08.884Z,68.91
2018-06-10T19:03:37.988Z,69.39
2018-06-10T19:06:10.349Z,68.98
2018-06-10T19:08:39.486Z,70.11
2018-06-10T19:11:08.540Z,69.81
2018-06-10T19:13:38.084Z,69.43
2018-06-10T19:16:11.011Z,70.46
2018-06-10T19:18:40.153Z,69.99
2018-06-10T19:21:09.188Z,71.77
2018-06-10T19:23:38.371Z,69.45
2018-06-10T19:26:11.306Z,69.73
2018-06-10T19:28:40.319Z,69.25
2018-06-10T19:31:09.526Z,69.34
2018-06-10T19:33:38.800Z,70.19
2018-06-10T19:36:08.899Z,71.04
2018-06-10T19:38:37.831Z,72.69
2018-06-10T19:41:07.085Z,72.29
2018-06-10T19:43:37.691Z,72.36
2018-06-10T19:46:10.634Z,73.09
2018-06-10T19:48:39.941Z,71.68
2018-06-10T19:51:09.220Z,72.59
2018-06-10T19:53:38.306Z,71.96
2018-06-10T19:56:10.692Z,71.27
2018-06-10T19:58:39.836Z,71.29
2018-06-10T20:01:09.293Z,71.76
2018-06-10T20:03:38.378Z,72.23
2018-06-10T20:06:11.268Z,71.94
2018-06-10T20:08:40.380Z,72.31
2018-06-10T20:11:09.459Z,73.43
2018-06-10T20:13:38.578Z,73.31
2018-06-10T20:16:11.542Z,73.35
2018-06-10T20:18:41.024Z,73.49
2018-06-10T20:21:10.124Z,73.15
2018-06-10T20:23:39.300Z,73.48
2018-06-10T20:26:12.029Z,73.34
2018-06-10T20:28:40.962Z,74.97
2018-06-10T20:31:10.207Z,75.45
2018-06-10T20:33:39.360Z,74.49
2018-06-10T20:36:11.956Z,75.56
2018-06-10T20:38:41.411Z,75.65
2018-06-10T20:41:10.889Z,75.39
2018-06-10T20:43:39.997Z,75.38
2018-06-10T20:46:10.203Z,74.59
2018-06-10T20:48:39.713Z,75.96
2018-06-10T20:51:09.306Z,75.59
2018-06-10T20:53:38.559Z,75.70
2018-06-10T20:56:10.705Z,76.18
2018-06-10T20:58:39.792Z,76.28
2018-06-10T21:01:09.659Z,76.25
2018-06-10T21:03:39.273Z,76.39
2018-06-10T21:06:11.748Z,76.93
2018-06-10T21:08:40.755Z,77.57
2018-06-10T21:11:09.723Z,77.25
2018-06-10T21:13:38.839Z,77.18
2018-06-10T21:16:10.480Z,78.58
2018-06-10T21:18:41.448Z,79.47
2018-06-10T21:21:10.540Z,80.00
2018-06-10T21:23:39.558Z,80.06
2018-06-10T21:26:10.498Z,79.56
2018-06-10T21:28:39.749Z,80.40
2018-06-10T21:31:08.868Z,81.76
2018-06-10T21:33:38.022Z,82.22
2018-06-10T21:36:10.699Z,82.01
2018-06-10T21:38:39.821Z,81.86
2018-06-10T21:41:08.807Z,81.89
2018-06-10T21:43:37.768Z,81.89
2018-06-10T21:46:09.538Z,81.61
2018-06-10T21:48:38.787Z,82.04
2018-06-10T21:51:07.773Z,82.19
2018-06-10T21:53:37.062Z,81.15
2018-06-10T21:56:08.406Z,81.23
2018-06-10T21:58:37.937Z,82.46
2018-06-10T22:01:07.028Z,82.76
2018-06-10T22:03:36.122Z,81.99
2018-06-10T22:06:06.128Z,82.00
2018-06-10T22:08:35.324Z,81.95
2018-06-10T22:11:05.046Z,82.78
2018-06-10T22:13:34.166Z,82.69
2018-06-10T22:16:04.028Z,83.22
2018-06-10T22:18:33.085Z,82.55
2018-06-10T22:21:02.153Z,82.58
2018-06-10T22:23:31.220Z,83.40
2018-06-10T22:26:00.345Z,83.29
2018-06-10T22:28:29.431Z,83.15
2018-06-10T22:30:58.530Z,83.27
2018-06-10T22:33:27.455Z,82.63
2018-06-10T22:35:56.716Z,83.82
2018-06-10T22:38:26.406Z,83.36
2018-06-10T22:40:55.525Z,83.45
2018-06-10T22:43:24.606Z,84.20
2018-06-10T22:45:53.943Z,84.43
2018-06-10T22:48:22.998Z,84.33
2018-06-10T22:50:51.999Z,84.00
2018-06-10T22:54:30.297Z,84.06
2018-06-10T22:56:59.435Z,84.36
2018-06-10T22:59:28.710Z,83.80
2018-06-10T23:01:57.828Z,83.21
2018-06-10T23:04:26.790Z,84.16
2018-06-10T23:06:56.031Z,83.79
2018-06-10T23:09:25.133Z,83.65
2018-06-10T23:11:54.205Z,84.31
2018-06-10T23:14:23.290Z,84.61
2018-06-10T23:16:52.391Z,84.46
2018-06-10T23:19:21.664Z,84.38
2018-06-10T23:21:50.602Z,84.41
2018-06-10T23:24:19.892Z,84.63
2018-06-10T23:26:49.068Z,84.59
2018-06-10T23:29:18.160Z,85.04
2018-06-10T23:31:47.768Z,87.00
2018-06-10T23:34:17.423Z,86.39
2018-06-10T23:36:46.727Z,86.22
2018-06-10T23:39:15.767Z,87.25
2018-06-10T23:41:44.882Z,87.14
2018-06-10T23:44:14.379Z,87.01
2018-06-10T23:46:43.331Z,87.60
2018-06-10T23:49:15.078Z,87.81
2018-06-10T23:51:45.843Z,89.17
2018-06-10T23:54:15.033Z,89.72
2018-06-10T23:56:44.270Z,90.09
2018-06-10T23:59:13.398Z,90.03
